sensor_id;sensor_type;location;lat;lon;timestamp;temperature;humidity
13711;DHT22;6927;51.256;9.410;2023-06-14T00:01:24;17.30;99.90
13711;DHT22;6927;51.256;9.410;2023-06-14T00:03:49;17.30;99.90
13711;DHT22;6927;51.256;9.410;2023-06-14T00:06:15;17.30;99.90
13711;DHT22;6927;51.256;9.410;2023-06-14T00:08:41;17.20;99.90
13711;DHT22;6927;51.256;9.410;2023-06-14T00:11:07;17.20;99.90
13711;DHT22;6927;51.256;9.410;2023-06-14T00:13:32;17.10;99.90
13711;DHT22;6927;51.256;9.410;2023-06-14T00:15:58;17.10;99.90
13711;DHT22;6927;51.256;9.410;2023-06-14T00:18:24;17.10;99.90
13711;DHT22;6927;51.256;9.410;2023-06-14T00:20:50;17.10;99.90
13711;DHT22;6927;51.256;9.410;2023-06-14T00:23:17;17.00;99.90
13711;DHT22;6927;51.256;9.410;2023-06-14T00:25:43;17.00;99.90
13711;DHT22;6927;51.256;9.410;2023-06-14T00:28:08;17.00;99.90
13711;DHT22;6927;51.256;9.410;2023-06-14T00:30:34;16.90;99.90
13711;DHT22;6927;51.256;9.410;2023-06-14T00:32:59;16.90;99.90
13711;DHT22;6927;51.256;9.410;2023-06-14T00:35:25;16.90;99.90
13711;DHT22;6927;51.256;9.410;2023-06-14T00:37:51;16.90;99.90
13711;DHT22;6927;51.256;9.410;2023-06-14T00:40:16;16.80;99.90
13711;DHT22;6927;51.256;9.410;2023-06-14T00:42:42;16.70;99.90
13711;DHT22;6927;51.256;9.410;2023-06-14T00:45:08;16.70;99.90
13711;DHT22;6927;51.256;9.410;2023-06-14T00:47:35;16.70;99.90
13711;DHT22;6927;51.256;9.410;2023-06-14T00:50:02;16.60;99.90
13711;DHT22;6927;51.256;9.410;2023-06-14T00:52:28;16.60;99.90
13711;DHT22;6927;51.256;9.410;2023-06-14T00:54:54;16.50;99.90
13711;DHT22;6927;51.256;9.410;2023-06-14T00:57:20;16.40;99.90
13711;DHT22;6927;51.256;9.410;2023-06-14T00:59:49;16.30;99.90
13711;DHT22;6927;51.256;9.410;2023-06-14T01:02:16;16.30;99.90
13711;DHT22;6927;51.256;9.410;2023-06-14T01:04:43;16.30;99.90
13711;DHT22;6927;51.256;9.410;2023-06-14T01:07:33;16.20;99.90
13711;DHT22;6927;51.256;9.410;2023-06-14T01:13:12;16.20;99.90
13711;DHT22;6927;51.256;9.410;2023-06-14T01:15:39;16.10;99.90
13711;DHT22;6927;51.256;9.410;2023-06-14T01:18:06;16.10;99.90
13711;DHT22;6927;51.256;9.410;2023-06-14T01:20:33;16.10;99.90
13711;DHT22;6927;51.256;9.410;2023-06-14T01:23:02;16.10;99.90
13711;DHT22;6927;51.256;9.410;2023-06-14T01:25:27;16.00;99.90
13711;DHT22;6927;51.256;9.410;2023-06-14T01:27:57;16.00;99.90
13711;DHT22;6927;51.256;9.410;2023-06-14T01:30:24;16.00;99.90
13711;DHT22;6927;51.256;9.410;2023-06-14T01:32:54;15.90;99.90
13711;DHT22;6927;51.256;9.410;2023-06-14T01:35:21;15.90;99.90
13711;DHT22;6927;51.256;9.410;2023-06-14T01:37:48;15.80;99.90
13711;DHT22;6927;51.256;9.410;2023-06-14T01:40:15;15.90;99.90
13711;DHT22;6927;51.256;9.410;2023-06-14T01:42:41;15.80;99.90
13711;DHT22;6927;51.256;9.410;2023-06-14T01:45:09;15.70;99.90
13711;DHT22;6927;51.256;9.410;2023-06-14T01:47:35;15.70;99.90
13711;DHT22;6927;51.256;9.410;2023-06-14T01:50:02;15.60;99.90
13711;DHT22;6927;51.256;9.410;2023-06-14T01:52:28;15.60;99.90
13711;DHT22;6927;51.256;9.410;2023-06-14T01:54:54;15.50;99.90
13711;DHT22;6927;51.256;9.410;2023-06-14T01:57:19;15.50;99.90
13711;DHT22;6927;51.256;9.410;2023-06-14T01:59:46;15.40;99.90
13711;DHT22;6927;51.256;9.410;2023-06-14T02:02:14;15.40;99.90
13711;DHT22;6927;51.256;9.410;2023-06-14T02:04:40;15.30;99.90
13711;DHT22;6927;51.256;9.410;2023-06-14T02:07:05;15.30;99.90
13711;DHT22;6927;51.256;9.410;2023-06-14T02:09:31;15.20;99.90
13711;DHT22;6927;51.256;9.410;2023-06-14T02:11:56;15.20;99.90
13711;DHT22;6927;51.256;9.410;2023-06-14T02:14:24;15.10;99.90
13711;DHT22;6927;51.256;9.410;2023-06-14T02:16:51;15.10;99.90
13711;DHT22;6927;51.256;9.410;2023-06-14T02:19:19;15.00;99.90
13711;DHT22;6927;51.256;9.410;2023-06-14T02:21:52;15.00;99.90
13711;DHT22;6927;51.256;9.410;2023-06-14T02:24:18;15.00;99.90
13711;DHT22;6927;51.256;9.410;2023-06-14T02:26:43;14.90;99.90
13711;DHT22;6927;51.256;9.410;2023-06-14T02:29:09;14.90;99.90
13711;DHT22;6927;51.256;9.410;2023-06-14T02:31:37;14.80;99.90
13711;DHT22;6927;51.256;9.410;2023-06-14T02:34:03;14.80;99.90
13711;DHT22;6927;51.256;9.410;2023-06-14T02:36:29;14.70;99.90
13711;DHT22;6927;51.256;9.410;2023-06-14T02:38:57;14.70;99.90
13711;DHT22;6927;51.256;9.410;2023-06-14T02:41:24;14.70;99.90
13711;DHT22;6927;51.256;9.410;2023-06-14T02:43:51;14.60;99.90
13711;DHT22;6927;51.256;9.410;2023-06-14T02:46:17;14.50;99.90
13711;DHT22;6927;51.256;9.410;2023-06-14T02:48:45;14.50;99.90
13711;DHT22;6927;51.256;9.410;2023-06-14T02:51:11;14.50;99.90
13711;DHT22;6927;51.256;9.410;2023-06-14T02:53:38;14.50;99.90
13711;DHT22;6927;51.256;9.410;2023-06-14T02:56:03;14.40;99.90
13711;DHT22;6927;51.256;9.410;2023-06-14T02:58:30;14.50;99.90
13711;DHT22;6927;51.256;9.410;2023-06-14T03:00:55;14.40;99.90
13711;DHT22;6927;51.256;9.410;2023-06-14T03:03:21;14.40;99.90
13711;DHT22;6927;51.256;9.410;2023-06-14T03:05:48;14.40;99.90
13711;DHT22;6927;51.256;9.410;2023-06-14T03:08:15;14.40;99.90
13711;DHT22;6927;51.256;9.410;2023-06-14T03:10:48;14.40;99.90
13711;DHT22;6927;51.256;9.410;2023-06-14T03:13:15;14.40;99.90
13711;DHT22;6927;51.256;9.410;2023-06-14T03:15:42;14.30;99.90
13711;DHT22;6927;51.256;9.410;2023-06-14T03:18:08;14.30;99.90
13711;DHT22;6927;51.256;9.410;2023-06-14T03:20:35;14.30;99.90
13711;DHT22;6927;51.256;9.410;2023-06-14T03:23:01;14.30;99.90
13711;DHT22;6927;51.256;9.410;2023-06-14T03:25:28;14.30;99.90
13711;DHT22;6927;51.256;9.410;2023-06-14T03:27:55;14.30;99.90
13711;DHT22;6927;51.256;9.410;2023-06-14T03:30:21;14.20;99.90
13711;DHT22;6927;51.256;9.410;2023-06-14T03:32:46;14.20;99.90
13711;DHT22;6927;51.256;9.410;2023-06-14T03:35:12;14.20;99.90
13711;DHT22;6927;51.256;9.410;2023-06-14T03:37:43;14.10;99.90
13711;DHT22;6927;51.256;9.410;2023-06-14T03:40:09;14.10;99.90
13711;DHT22;6927;51.256;9.410;2023-06-14T03:42:38;14.10;99.90
13711;DHT22;6927;51.256;9.410;2023-06-14T03:45:04;14.10;99.90
13711;DHT22;6927;51.256;9.410;2023-06-14T03:47:30;14.10;99.90
13711;DHT22;6927;51.256;9.410;2023-06-14T03:49:56;14.10;99.90
13711;DHT22;6927;51.256;9.410;2023-06-14T03:52:21;14.10;99.90
13711;DHT22;6927;51.256;9.410;2023-06-14T03:54:48;14.20;99.90
13711;DHT22;6927;51.256;9.410;2023-06-14T03:57:15;14.20;99.90
13711;DHT22;6927;51.256;9.410;2023-06-14T03:59:40;14.30;99.90
13711;DHT22;6927;51.256;9.410;2023-06-14T04:02:07;14.30;99.90
13711;DHT22;6927;51.256;9.410;2023-06-14T04:04:34;14.30;99.90
13711;DHT22;6927;51.256;9.410;2023-06-14T04:07:01;14.30;99.90
13711;DHT22;6927;51.256;9.410;2023-06-14T04:09:29;14.30;99.90
13711;DHT22;6927;51.256;9.410;2023-06-14T04:11:54;14.30;99.90
13711;DHT22;6927;51.256;9.410;2023-06-14T04:14:21;14.30;99.90
13711;DHT22;6927;51.256;9.410;2023-06-14T04:16:49;14.30;99.90
13711;DHT22;6927;51.256;9.410;2023-06-14T04:19:15;14.30;99.90
13711;DHT22;6927;51.256;9.410;2023-06-14T04:21:41;14.40;99.90
13711;DHT22;6927;51.256;9.410;2023-06-14T04:24:07;14.30;99.90
13711;DHT22;6927;51.256;9.410;2023-06-14T04:26:38;14.30;99.90
13711;DHT22;6927;51.256;9.410;2023-06-14T04:29:05;14.30;99.90
13711;DHT22;6927;51.256;9.410;2023-06-14T04:31:31;14.40;99.90
13711;DHT22;6927;51.256;9.410;2023-06-14T04:33:59;14.40;99.90
13711;DHT22;6927;51.256;9.410;2023-06-14T04:36:25;14.40;99.90
13711;DHT22;6927;51.256;9.410;2023-06-14T04:38:53;14.30;99.90
13711;DHT22;6927;51.256;9.410;2023-06-14T04:41:21;14.40;99.90
13711;DHT22;6927;51.256;9.410;2023-06-14T04:43:48;14.40;99.90
13711;DHT22;6927;51.256;9.410;2023-06-14T04:46:14;14.40;99.90
13711;DHT22;6927;51.256;9.410;2023-06-14T04:48:41;14.40;99.90
13711;DHT22;6927;51.256;9.410;2023-06-14T04:51:08;14.50;99.90
13711;DHT22;6927;51.256;9.410;2023-06-14T04:53:34;14.50;99.90
13711;DHT22;6927;51.256;9.410;2023-06-14T04:59:23;14.50;99.90
13711;DHT22;6927;51.256;9.410;2023-06-14T05:01:50;14.60;99.90
13711;DHT22;6927;51.256;9.410;2023-06-14T05:04:16;14.60;99.90
13711;DHT22;6927;51.256;9.410;2023-06-14T05:06:43;14.60;99.90
13711;DHT22;6927;51.256;9.410;2023-06-14T05:09:14;14.60;99.90
13711;DHT22;6927;51.256;9.410;2023-06-14T05:11:40;14.70;99.90
13711;DHT22;6927;51.256;9.410;2023-06-14T05:14:07;14.70;99.90
13711;DHT22;6927;51.256;9.410;2023-06-14T05:16:33;14.80;99.90
13711;DHT22;6927;51.256;9.410;2023-06-14T05:18:58;14.80;99.90
13711;DHT22;6927;51.256;9.410;2023-06-14T05:21:24;14.80;99.90
13711;DHT22;6927;51.256;9.410;2023-06-14T05:23:50;14.70;99.90
13711;DHT22;6927;51.256;9.410;2023-06-14T05:26:16;14.70;99.90
13711;DHT22;6927;51.256;9.410;2023-06-14T05:28:42;14.70;99.90
13711;DHT22;6927;51.256;9.410;2023-06-14T05:31:07;14.80;99.90
13711;DHT22;6927;51.256;9.410;2023-06-14T05:33:33;14.70;99.90
13711;DHT22;6927;51.256;9.410;2023-06-14T05:35:58;14.60;99.90
13711;DHT22;6927;51.256;9.410;2023-06-14T05:38:24;14.70;99.90
13711;DHT22;6927;51.256;9.410;2023-06-14T05:40:50;14.80;99.90
13711;DHT22;6927;51.256;9.410;2023-06-14T05:43:16;14.80;99.90
13711;DHT22;6927;51.256;9.410;2023-06-14T05:45:41;14.80;99.90
13711;DHT22;6927;51.256;9.410;2023-06-14T05:48:07;14.90;99.90
13711;DHT22;6927;51.256;9.410;2023-06-14T05:50:32;15.00;99.90
13711;DHT22;6927;51.256;9.410;2023-06-14T05:52:59;15.20;99.90
13711;DHT22;6927;51.256;9.410;2023-06-14T05:55:24;15.20;99.90
13711;DHT22;6927;51.256;9.410;2023-06-14T05:57:50;15.10;99.90
13711;DHT22;6927;51.256;9.410;2023-06-14T06:00:16;15.20;99.90
13711;DHT22;6927;51.256;9.410;2023-06-14T06:02:42;15.20;99.90
13711;DHT22;6927;51.256;9.410;2023-06-14T06:05:13;15.30;99.90
13711;DHT22;6927;51.256;9.410;2023-06-14T06:07:39;15.40;99.90
13711;DHT22;6927;51.256;9.410;2023-06-14T06:10:06;15.30;99.90
13711;DHT22;6927;51.256;9.410;2023-06-14T06:12:32;15.40;99.90
13711;DHT22;6927;51.256;9.410;2023-06-14T06:14:58;15.60;99.90
13711;DHT22;6927;51.256;9.410;2023-06-14T06:17:25;15.60;99.90
13711;DHT22;6927;51.256;9.410;2023-06-14T06:19:50;15.70;99.90
13711;DHT22;6927;51.256;9.410;2023-06-14T06:22:16;15.60;99.90
13711;DHT22;6927;51.256;9.410;2023-06-14T06:24:42;15.60;99.90
13711;DHT22;6927;51.256;9.410;2023-06-14T06:27:08;15.70;99.90
13711;DHT22;6927;51.256;9.410;2023-06-14T06:29:34;16.00;99.90
13711;DHT22;6927;51.256;9.410;2023-06-14T06:32:00;16.10;99.90
13711;DHT22;6927;51.256;9.410;2023-06-14T06:34:26;16.40;99.90
13711;DHT22;6927;51.256;9.410;2023-06-14T06:36:51;16.60;99.90
13711;DHT22;6927;51.256;9.410;2023-06-14T06:39:17;16.60;99.90
13711;DHT22;6927;51.256;9.410;2023-06-14T06:41:42;16.70;99.90
13711;DHT22;6927;51.256;9.410;2023-06-14T06:44:08;16.90;99.90
13711;DHT22;6927;51.256;9.410;2023-06-14T06:46:36;17.00;99.90
13711;DHT22;6927;51.256;9.410;2023-06-14T06:49:05;17.60;99.90
13711;DHT22;6927;51.256;9.410;2023-06-14T06:51:31;18.20;99.90
13711;DHT22;6927;51.256;9.410;2023-06-14T06:53:56;18.80;99.90
13711;DHT22;6927;51.256;9.410;2023-06-14T06:56:22;18.70;99.90
13711;DHT22;6927;51.256;9.410;2023-06-14T06:58:52;18.70;99.90
13711;DHT22;6927;51.256;9.410;2023-06-14T07:01:18;19.00;99.90
13711;DHT22;6927;51.256;9.410;2023-06-14T07:07:07;19.30;99.90
13711;DHT22;6927;51.256;9.410;2023-06-14T07:09:34;19.60;99.90
13711;DHT22;6927;51.256;9.410;2023-06-14T07:12:00;19.50;99.90
13711;DHT22;6927;51.256;9.410;2023-06-14T07:14:26;19.80;99.90
13711;DHT22;6927;51.256;9.410;2023-06-14T07:16:54;19.80;99.90
13711;DHT22;6927;51.256;9.410;2023-06-14T07:19:20;20.50;99.90
13711;DHT22;6927;51.256;9.410;2023-06-14T07:21:46;21.10;99.90
13711;DHT22;6927;51.256;9.410;2023-06-14T07:24:11;21.40;99.90
13711;DHT22;6927;51.256;9.410;2023-06-14T07:26:39;21.40;99.90
13711;DHT22;6927;51.256;9.410;2023-06-14T07:29:05;21.70;99.90
13711;DHT22;6927;51.256;9.410;2023-06-14T07:31:30;21.80;99.90
13711;DHT22;6927;51.256;9.410;2023-06-14T07:33:56;21.70;99.90
13711;DHT22;6927;51.256;9.410;2023-06-14T07:36:22;21.70;99.90
13711;DHT22;6927;51.256;9.410;2023-06-14T07:38:48;21.90;99.90
13711;DHT22;6927;51.256;9.410;2023-06-14T07:41:13;22.50;99.90
13711;DHT22;6927;51.256;9.410;2023-06-14T07:43:39;23.40;99.90
13711;DHT22;6927;51.256;9.410;2023-06-14T07:46:05;22.90;99.90
13711;DHT22;6927;51.256;9.410;2023-06-14T07:48:30;23.40;99.90
13711;DHT22;6927;51.256;9.410;2023-06-14T07:50:56;23.20;99.90
13711;DHT22;6927;51.256;9.410;2023-06-14T07:53:22;23.00;99.90
13711;DHT22;6927;51.256;9.410;2023-06-14T07:55:47;22.80;99.90
13711;DHT22;6927;51.256;9.410;2023-06-14T07:58:14;22.80;99.90
13711;DHT22;6927;51.256;9.410;2023-06-14T08:00:39;23.30;99.90
13711;DHT22;6927;51.256;9.410;2023-06-14T08:03:05;23.60;99.90
13711;DHT22;6927;51.256;9.410;2023-06-14T08:05:30;23.60;99.90
13711;DHT22;6927;51.256;9.410;2023-06-14T08:07:56;23.50;99.90
13711;DHT22;6927;51.256;9.410;2023-06-14T08:10:23;23.40;99.90
13711;DHT22;6927;51.256;9.410;2023-06-14T08:12:48;22.80;99.90
13711;DHT22;6927;51.256;9.410;2023-06-14T08:15:16;21.70;99.90
13711;DHT22;6927;51.256;9.410;2023-06-14T08:17:45;21.60;99.90
13711;DHT22;6927;51.256;9.410;2023-06-14T08:20:11;20.80;99.90
13711;DHT22;6927;51.256;9.410;2023-06-14T08:22:37;20.60;99.90
13711;DHT22;6927;51.256;9.410;2023-06-14T08:25:03;21.80;99.90
13711;DHT22;6927;51.256;9.410;2023-06-14T08:27:29;22.50;99.90
13711;DHT22;6927;51.256;9.410;2023-06-14T08:29:55;22.30;99.90
13711;DHT22;6927;51.256;9.410;2023-06-14T08:32:22;21.50;99.90
13711;DHT22;6927;51.256;9.410;2023-06-14T08:34:47;21.50;99.90
13711;DHT22;6927;51.256;9.410;2023-06-14T08:37:13;21.90;99.90
13711;DHT22;6927;51.256;9.410;2023-06-14T08:39:39;21.80;99.90
13711;DHT22;6927;51.256;9.410;2023-06-14T08:42:05;21.70;99.90
13711;DHT22;6927;51.256;9.410;2023-06-14T08:44:33;21.00;99.90
13711;DHT22;6927;51.256;9.410;2023-06-14T08:46:59;21.90;99.90
13711;DHT22;6927;51.256;9.410;2023-06-14T08:49:25;21.00;99.90
13711;DHT22;6927;51.256;9.410;2023-06-14T08:51:59;20.80;99.90
13711;DHT22;6927;51.256;9.410;2023-06-14T08:54:27;20.20;99.90
13711;DHT22;6927;51.256;9.410;2023-06-14T08:56:55;20.30;99.90
13711;DHT22;6927;51.256;9.410;2023-06-14T08:59:25;20.40;99.90
13711;DHT22;6927;51.256;9.410;2023-06-14T09:01:52;20.60;99.90
13711;DHT22;6927;51.256;9.410;2023-06-14T09:04:18;21.00;99.90
13711;DHT22;6927;51.256;9.410;2023-06-14T09:06:45;21.40;99.90
13711;DHT22;6927;51.256;9.410;2023-06-14T09:09:11;21.90;99.90
13711;DHT22;6927;51.256;9.410;2023-06-14T09:11:37;22.00;99.90
13711;DHT22;6927;51.256;9.410;2023-06-14T09:14:03;21.50;99.90
13711;DHT22;6927;51.256;9.410;2023-06-14T09:16:32;20.70;99.90
13711;DHT22;6927;51.256;9.410;2023-06-14T09:18:57;19.90;99.90
13711;DHT22;6927;51.256;9.410;2023-06-14T09:21:23;19.90;99.90
13711;DHT22;6927;51.256;9.410;2023-06-14T09:23:49;21.10;99.90
13711;DHT22;6927;51.256;9.410;2023-06-14T09:26:18;21.90;99.90
13711;DHT22;6927;51.256;9.410;2023-06-14T09:28:52;22.90;99.90
13711;DHT22;6927;51.256;9.410;2023-06-14T09:31:20;22.00;99.90
13711;DHT22;6927;51.256;9.410;2023-06-14T09:33:47;21.80;99.90
13711;DHT22;6927;51.256;9.410;2023-06-14T09:36:32;22.10;99.90
13711;DHT22;6927;51.256;9.410;2023-06-14T09:38:59;22.90;99.90
13711;DHT22;6927;51.256;9.410;2023-06-14T09:41:36;23.00;99.90
13711;DHT22;6927;51.256;9.410;2023-06-14T09:44:09;22.60;99.90
13711;DHT22;6927;51.256;9.410;2023-06-14T09:46:36;22.50;99.90
13711;DHT22;6927;51.256;9.410;2023-06-14T09:49:03;22.70;99.90
13711;DHT22;6927;51.256;9.410;2023-06-14T09:51:29;23.00;99.90
13711;DHT22;6927;51.256;9.410;2023-06-14T09:54:03;23.90;99.90
13711;DHT22;6927;51.256;9.410;2023-06-14T09:56:37;24.20;99.90
13711;DHT22;6927;51.256;9.410;2023-06-14T09:59:04;24.20;99.90
13711;DHT22;6927;51.256;9.410;2023-06-14T10:01:32;23.70;99.90
13711;DHT22;6927;51.256;9.410;2023-06-14T10:04:03;23.30;99.90
13711;DHT22;6927;51.256;9.410;2023-06-14T10:06:29;23.10;99.90
13711;DHT22;6927;51.256;9.410;2023-06-14T10:08:59;23.60;99.90
13711;DHT22;6927;51.256;9.410;2023-06-14T10:11:26;24.40;99.90
13711;DHT22;6927;51.256;9.410;2023-06-14T10:13:55;24.60;99.90
13711;DHT22;6927;51.256;9.410;2023-06-14T10:17:03;24.20;99.90
13711;DHT22;6927;51.256;9.410;2023-06-14T10:19:37;24.40;99.90
13711;DHT22;6927;51.256;9.410;2023-06-14T10:22:23;24.80;99.90
13711;DHT22;6927;51.256;9.410;2023-06-14T10:24:51;25.20;99.90
13711;DHT22;6927;51.256;9.410;2023-06-14T10:27:17;25.10;99.90
13711;DHT22;6927;51.256;9.410;2023-06-14T10:32:18;24.30;99.90
13711;DHT22;6927;51.256;9.410;2023-06-14T10:34:44;24.00;99.90
13711;DHT22;6927;51.256;9.410;2023-06-14T10:37:14;24.20;99.90
13711;DHT22;6927;51.256;9.410;2023-06-14T10:39:43;24.30;99.90
13711;DHT22;6927;51.256;9.410;2023-06-14T10:42:13;24.20;99.90
13711;DHT22;6927;51.256;9.410;2023-06-14T10:44:49;24.60;99.90
13711;DHT22;6927;51.256;9.410;2023-06-14T10:47:25;24.60;99.90
13711;DHT22;6927;51.256;9.410;2023-06-14T10:49:53;25.30;99.90
13711;DHT22;6927;51.256;9.410;2023-06-14T10:52:22;26.20;99.90
13711;DHT22;6927;51.256;9.410;2023-06-14T10:57:27;25.60;99.90
13711;DHT22;6927;51.256;9.410;2023-06-14T10:59:53;25.70;99.90
13711;DHT22;6927;51.256;9.410;2023-06-14T11:04:52;26.80;99.90
13711;DHT22;6927;51.256;9.410;2023-06-14T11:10:06;26.20;99.90
13711;DHT22;6927;51.256;9.410;2023-06-14T11:12:36;25.90;99.90
13711;DHT22;6927;51.256;9.410;2023-06-14T11:15:05;25.50;99.90
13711;DHT22;6927;51.256;9.410;2023-06-14T11:17:33;24.70;99.90
13711;DHT22;6927;51.256;9.410;2023-06-14T11:20:11;24.80;99.90
13711;DHT22;6927;51.256;9.410;2023-06-14T11:22:44;25.40;99.90
13711;DHT22;6927;51.256;9.410;2023-06-14T11:25:12;24.50;99.90
13711;DHT22;6927;51.256;9.410;2023-06-14T11:27:37;23.80;99.90
13711;DHT22;6927;51.256;9.410;2023-06-14T11:30:06;23.40;99.90
13711;DHT22;6927;51.256;9.410;2023-06-14T11:32:32;23.60;99.90
13711;DHT22;6927;51.256;9.410;2023-06-14T11:34:58;23.30;99.90
13711;DHT22;6927;51.256;9.410;2023-06-14T11:37:26;23.40;99.90
13711;DHT22;6927;51.256;9.410;2023-06-14T11:39:56;23.00;99.90
13711;DHT22;6927;51.256;9.410;2023-06-14T11:42:22;23.00;99.90
13711;DHT22;6927;51.256;9.410;2023-06-14T11:44:49;22.90;99.90
13711;DHT22;6927;51.256;9.410;2023-06-14T11:47:15;22.90;99.90
13711;DHT22;6927;51.256;9.410;2023-06-14T11:49:40;23.00;99.90
13711;DHT22;6927;51.256;9.410;2023-06-14T11:52:07;22.80;99.90
13711;DHT22;6927;51.256;9.410;2023-06-14T11:54:33;22.60;99.90
13711;DHT22;6927;51.256;9.410;2023-06-14T11:56:59;22.40;99.90
13711;DHT22;6927;51.256;9.410;2023-06-14T11:59:26;22.70;99.90
13711;DHT22;6927;51.256;9.410;2023-06-14T12:01:56;22.80;99.90
13711;DHT22;6927;51.256;9.410;2023-06-14T12:04:27;22.80;99.90
13711;DHT22;6927;51.256;9.410;2023-06-14T12:06:52;22.90;99.90
13711;DHT22;6927;51.256;9.410;2023-06-14T12:09:21;22.40;99.90
13711;DHT22;6927;51.256;9.410;2023-06-14T12:11:49;22.60;99.90
13711;DHT22;6927;51.256;9.410;2023-06-14T12:14:15;22.50;99.90
13711;DHT22;6927;51.256;9.410;2023-06-14T12:16:42;22.40;99.90
13711;DHT22;6927;51.256;9.410;2023-06-14T12:19:13;22.60;99.90
13711;DHT22;6927;51.256;9.410;2023-06-14T12:21:40;23.20;99.90
13711;DHT22;6927;51.256;9.410;2023-06-14T12:24:08;23.60;99.90
13711;DHT22;6927;51.256;9.410;2023-06-14T12:26:41;24.10;99.90
13711;DHT22;6927;51.256;9.410;2023-06-14T12:29:07;24.40;99.90
13711;DHT22;6927;51.256;9.410;2023-06-14T12:31:33;23.60;99.90
13711;DHT22;6927;51.256;9.410;2023-06-14T12:33:58;23.20;99.90
13711;DHT22;6927;51.256;9.410;2023-06-14T12:36:24;23.10;99.90
13711;DHT22;6927;51.256;9.410;2023-06-14T12:38:51;23.10;99.90
13711;DHT22;6927;51.256;9.410;2023-06-14T12:41:19;23.60;99.90
13711;DHT22;6927;51.256;9.410;2023-06-14T12:43:46;23.80;99.90
13711;DHT22;6927;51.256;9.410;2023-06-14T12:46:12;23.80;99.90
13711;DHT22;6927;51.256;9.410;2023-06-14T12:48:37;23.50;99.90
13711;DHT22;6927;51.256;9.410;2023-06-14T12:51:03;23.20;99.90
13711;DHT22;6927;51.256;9.410;2023-06-14T12:53:28;23.30;99.90
13711;DHT22;6927;51.256;9.410;2023-06-14T12:55:54;23.20;99.90
13711;DHT22;6927;51.256;9.410;2023-06-14T12:58:20;23.00;99.90
13711;DHT22;6927;51.256;9.410;2023-06-14T13:00:46;23.10;99.90
13711;DHT22;6927;51.256;9.410;2023-06-14T13:03:12;23.00;99.90
13711;DHT22;6927;51.256;9.410;2023-06-14T13:05:37;23.00;99.90
13711;DHT22;6927;51.256;9.410;2023-06-14T13:08:06;23.20;99.90
13711;DHT22;6927;51.256;9.410;2023-06-14T13:10:33;23.20;99.90
13711;DHT22;6927;51.256;9.410;2023-06-14T13:12:59;23.20;99.90
13711;DHT22;6927;51.256;9.410;2023-06-14T13:15:25;23.60;99.90
13711;DHT22;6927;51.256;9.410;2023-06-14T13:17:51;24.00;99.90
13711;DHT22;6927;51.256;9.410;2023-06-14T13:20:16;24.10;99.90
13711;DHT22;6927;51.256;9.410;2023-06-14T13:22:42;24.00;99.90
13711;DHT22;6927;51.256;9.410;2023-06-14T13:25:08;24.00;99.90
13711;DHT22;6927;51.256;9.410;2023-06-14T13:27:33;23.90;99.90
13711;DHT22;6927;51.256;9.410;2023-06-14T13:29:59;23.90;99.90
13711;DHT22;6927;51.256;9.410;2023-06-14T13:32:24;24.00;99.90
13711;DHT22;6927;51.256;9.410;2023-06-14T13:34:50;24.00;99.90
13711;DHT22;6927;51.256;9.410;2023-06-14T13:37:16;24.20;99.90
13711;DHT22;6927;51.256;9.410;2023-06-14T13:39:42;24.00;99.90
13711;DHT22;6927;51.256;9.410;2023-06-14T13:42:07;23.50;99.90
13711;DHT22;6927;51.256;9.410;2023-06-14T13:44:33;22.80;99.90
13711;DHT22;6927;51.256;9.410;2023-06-14T13:46:59;22.80;99.90
13711;DHT22;6927;51.256;9.410;2023-06-14T13:49:25;22.80;99.90
13711;DHT22;6927;51.256;9.410;2023-06-14T13:51:51;23.00;99.90
13711;DHT22;6927;51.256;9.410;2023-06-14T13:54:19;23.10;99.90
13711;DHT22;6927;51.256;9.410;2023-06-14T13:56:46;23.30;99.90
13711;DHT22;6927;51.256;9.410;2023-06-14T13:59:12;23.60;99.90
13711;DHT22;6927;51.256;9.410;2023-06-14T14:01:37;24.00;99.90
13711;DHT22;6927;51.256;9.410;2023-06-14T14:04:04;23.90;99.90
13711;DHT22;6927;51.256;9.410;2023-06-14T14:06:30;23.50;99.90
13711;DHT22;6927;51.256;9.410;2023-06-14T14:08:56;23.30;99.90
13711;DHT22;6927;51.256;9.410;2023-06-14T14:11:21;22.90;99.90
13711;DHT22;6927;51.256;9.410;2023-06-14T14:13:47;22.80;99.90
13711;DHT22;6927;51.256;9.410;2023-06-14T14:16:13;22.60;99.90
13711;DHT22;6927;51.256;9.410;2023-06-14T14:18:39;22.60;99.90
13711;DHT22;6927;51.256;9.410;2023-06-14T14:21:05;22.40;99.90
13711;DHT22;6927;51.256;9.410;2023-06-14T14:23:30;22.40;99.90
13711;DHT22;6927;51.256;9.410;2023-06-14T14:25:56;22.60;99.90
13711;DHT22;6927;51.256;9.410;2023-06-14T14:28:22;22.60;99.90
13711;DHT22;6927;51.256;9.410;2023-06-14T14:30:47;22.60;99.90
13711;DHT22;6927;51.256;9.410;2023-06-14T14:33:14;22.50;99.90
13711;DHT22;6927;51.256;9.410;2023-06-14T14:35:42;22.50;99.90
13711;DHT22;6927;51.256;9.410;2023-06-14T14:38:08;22.20;99.90
13711;DHT22;6927;51.256;9.410;2023-06-14T14:40:34;22.30;99.90
13711;DHT22;6927;51.256;9.410;2023-06-14T14:43:00;22.30;99.90
13711;DHT22;6927;51.256;9.410;2023-06-14T14:45:25;22.30;99.90
13711;DHT22;6927;51.256;9.410;2023-06-14T14:47:51;22.30;99.90
13711;DHT22;6927;51.256;9.410;2023-06-14T14:50:16;22.20;99.90
13711;DHT22;6927;51.256;9.410;2023-06-14T14:52:42;21.90;99.90
13711;DHT22;6927;51.256;9.410;2023-06-14T14:55:08;21.70;99.90
13711;DHT22;6927;51.256;9.410;2023-06-14T14:57:33;21.70;99.90
13711;DHT22;6927;51.256;9.410;2023-06-14T14:59:59;21.80;99.90
13711;DHT22;6927;51.256;9.410;2023-06-14T15:02:25;21.80;99.90
13711;DHT22;6927;51.256;9.410;2023-06-14T15:04:50;21.90;99.90
13711;DHT22;6927;51.256;9.410;2023-06-14T15:07:17;21.80;99.90
13711;DHT22;6927;51.256;9.410;2023-06-14T15:09:42;22.10;99.90
13711;DHT22;6927;51.256;9.410;2023-06-14T15:12:09;22.50;99.90
13711;DHT22;6927;51.256;9.410;2023-06-14T15:14:36;23.10;99.90
13711;DHT22;6927;51.256;9.410;2023-06-14T15:17:01;23.20;99.90
13711;DHT22;6927;51.256;9.410;2023-06-14T15:19:28;23.00;99.90
13711;DHT22;6927;51.256;9.410;2023-06-14T15:21:53;22.90;99.90
13711;DHT22;6927;51.256;9.410;2023-06-14T15:24:19;22.70;99.90
13711;DHT22;6927;51.256;9.410;2023-06-14T15:26:45;22.30;99.90
13711;DHT22;6927;51.256;9.410;2023-06-14T15:29:11;22.20;99.90
13711;DHT22;6927;51.256;9.410;2023-06-14T15:31:36;22.10;99.90
13711;DHT22;6927;51.256;9.410;2023-06-14T15:34:01;22.10;99.90
13711;DHT22;6927;51.256;9.410;2023-06-14T15:36:28;22.30;99.90
13711;DHT22;6927;51.256;9.410;2023-06-14T15:38:53;22.50;99.90
13711;DHT22;6927;51.256;9.410;2023-06-14T15:41:19;22.80;99.90
13711;DHT22;6927;51.256;9.410;2023-06-14T15:43:44;23.10;99.90
13711;DHT22;6927;51.256;9.410;2023-06-14T15:46:10;23.30;99.90
13711;DHT22;6927;51.256;9.410;2023-06-14T15:48:35;23.30;99.90
13711;DHT22;6927;51.256;9.410;2023-06-14T15:51:01;23.40;99.90
13711;DHT22;6927;51.256;9.410;2023-06-14T15:53:26;23.50;99.90
13711;DHT22;6927;51.256;9.410;2023-06-14T15:55:52;23.20;99.90
13711;DHT22;6927;51.256;9.410;2023-06-14T15:58:18;23.00;99.90
13711;DHT22;6927;51.256;9.410;2023-06-14T16:00:43;23.10;99.90
13711;DHT22;6927;51.256;9.410;2023-06-14T16:03:08;23.00;99.90